createdAt,value
2022-10-09T00:01:16.950Z,77.12
2022-10-09T00:03:46.712Z,76.97
2022-10-09T00:06:16.345Z,76.99
2022-10-09T00:08:45.930Z,77.11
2022-10-09T00:11:16.264Z,76.94
2022-10-09T00:13:44.570Z,76.72
2022-10-09T00:16:14.400Z,76.56
2022-10-09T00:18:42.571Z,76.63
2022-10-09T00:21:20.031Z,76.45
2022-10-09T00:23:49.965Z,75.89
2022-10-09T00:26:18.304Z,76.49
2022-10-09T00:28:46.398Z,77.32
2022-10-09T00:31:14.840Z,78.05
2022-10-09T00:33:42.873Z,78.21
2022-10-09T00:36:12.464Z,78.01
2022-10-09T00:38:40.541Z,77.66
2022-10-09T00:41:09.867Z,78.04
2022-10-09T00:43:44.488Z,77.79
2022-10-09T00:46:29.558Z,77.61
2022-10-09T00:49:02.829Z,77.58
2022-10-09T00:51:32.757Z,77.66
2022-10-09T00:54:01.096Z,77.01
2022-10-09T00:56:30.308Z,77.26
2022-10-09T00:58:59.123Z,78.06
2022-10-09T01:01:27.836Z,78.82
2022-10-09T01:03:55.948Z,79.55
2022-10-09T01:06:30.247Z,79.66
2022-10-09T01:09:04.938Z,80.78
2022-10-09T01:11:42.363Z,81.08
2022-10-09T01:14:19.740Z,81.30
2022-10-09T01:16:53.514Z,81.65
2022-10-09T01:19:36.550Z,81.42
2022-10-09T01:22:15.061Z,80.43
2022-10-09T01:24:49.139Z,80.35
2022-10-09T01:27:23.094Z,80.93
2022-10-09T01:29:55.158Z,80.82
2022-10-09T01:32:28.237Z,80.95
2022-10-09T01:34:57.315Z,81.15
2022-10-09T01:37:25.832Z,81.49
2022-10-09T01:39:54.215Z,81.24
2022-10-09T01:42:26.101Z,80.87
2022-10-09T01:44:54.053Z,80.69
2022-10-09T01:47:22.862Z,80.38
2022-10-09T01:49:55.642Z,80.02
2022-10-09T01:52:31.799Z,79.79
2022-10-09T01:55:16.158Z,79.36
2022-10-09T01:57:51.322Z,79.55
2022-10-09T02:00:20.011Z,79.46
2022-10-09T02:02:49.202Z,79.78
2022-10-09T02:05:21.168Z,80.24
2022-10-09T02:07:49.279Z,79.61
2022-10-09T02:10:19.648Z,79.49
2022-10-09T02:12:53.279Z,79.44
2022-10-09T02:15:22.056Z,79.86
2022-10-09T02:17:54.232Z,80.28
2022-10-09T02:20:28.327Z,80.19
2022-10-09T02:22:57.994Z,80.90
2022-10-09T02:25:26.045Z,80.78
2022-10-09T02:27:55.572Z,81.33
2022-10-09T02:30:28.020Z,81.78
2022-10-09T02:32:56.382Z,82.15
2022-10-09T02:35:24.355Z,82.05
2022-10-09T02:37:52.252Z,81.89
2022-10-09T02:40:20.058Z,81.70
2022-10-09T02:42:48.059Z,81.50
2022-10-09T02:45:17.332Z,80.77
2022-10-09T02:47:45.140Z,80.56
2022-10-09T02:50:12.929Z,79.79
2022-10-09T02:52:40.695Z,79.70
2022-10-09T02:55:09.238Z,79.39
2022-10-09T02:57:37.040Z,78.96
2022-10-09T03:00:06.116Z,78.98
2022-10-09T03:02:35.363Z,78.76
2022-10-09T03:05:03.218Z,78.90
2022-10-09T03:07:31.257Z,78.96
2022-10-09T03:09:59.050Z,78.84
2022-10-09T03:12:26.935Z,78.77
2022-10-09T03:14:54.778Z,78.54
2022-10-09T03:17:22.581Z,78.51
2022-10-09T03:19:51.710Z,78.57
2022-10-09T03:22:19.509Z,78.23
2022-10-09T03:24:47.270Z,78.44
2022-10-09T03:27:15.064Z,78.29
2022-10-09T03:29:42.944Z,78.48
2022-10-09T03:32:10.962Z,78.20
2022-10-09T03:34:38.810Z,78.08
2022-10-09T03:37:07.939Z,77.91
2022-10-09T03:39:35.800Z,77.79
2022-10-09T03:42:03.585Z,77.69
2022-10-09T03:44:31.390Z,77.31
2022-10-09T03:46:59.241Z,77.33
2022-10-09T03:49:27.099Z,76.97
2022-10-09T03:51:54.875Z,76.94
2022-10-09T03:54:24.032Z,76.33
2022-10-09T03:56:51.833Z,76.40
2022-10-09T03:59:19.592Z,76.22
2022-10-09T04:01:47.388Z,76.08
2022-10-09T04:04:15.356Z,76.10
2022-10-09T04:06:43.259Z,76.09
2022-10-09T04:09:11.097Z,75.70
2022-10-09T04:11:40.211Z,75.76
2022-10-09T04:14:08.004Z,75.60
2022-10-09T04:16:36.137Z,75.44
2022-10-09T04:19:04.085Z,75.50
2022-10-09T04:21:33.385Z,74.99
2022-10-09T04:24:03.422Z,75.10
2022-10-09T04:26:31.194Z,74.84
2022-10-09T04:29:00.590Z,74.86
2022-10-09T04:31:28.424Z,74.66
2022-10-09T04:33:56.341Z,74.61
2022-10-09T04:36:24.412Z,74.64
2022-10-09T04:38:52.617Z,74.36
2022-10-09T04:41:20.445Z,74.12
2022-10-09T04:43:48.280Z,74.38
2022-10-09T04:46:17.504Z,74.15
2022-10-09T04:48:47.028Z,73.82
2022-10-09T04:51:15.878Z,74.02
2022-10-09T04:53:44.357Z,73.52
2022-10-09T04:56:18.286Z,73.15
2022-10-09T04:58:47.208Z,72.76
2022-10-09T05:01:19.203Z,72.71
2022-10-09T05:03:47.264Z,72.44
2022-10-09T05:06:16.318Z,72.29
2022-10-09T05:08:44.679Z,72.03
2022-10-09T05:11:14.240Z,71.96
2022-10-09T05:13:44.866Z,71.98
2022-10-09T05:16:17.147Z,71.93
2022-10-09T05:18:47.752Z,72.03
2022-10-09T05:21:16.820Z,71.97
2022-10-09T05:23:45.012Z,71.39
2022-10-09T05:26:17.953Z,71.19
2022-10-09T05:28:46.685Z,71.08
2022-10-09T05:31:20.070Z,71.37
2022-10-09T05:33:49.650Z,70.57
2022-10-09T05:36:18.413Z,70.02
2022-10-09T05:38:46.630Z,69.90
2022-10-09T05:41:16.470Z,70.26
2022-10-09T05:43:45.838Z,69.68
2022-10-09T05:46:15.691Z,69.40
2022-10-09T05:48:45.785Z,69.44
2022-10-09T05:51:16.929Z,69.14
2022-10-09T05:53:46.934Z,69.31
2022-10-09T05:56:17.447Z,69.11
2022-10-09T05:58:49.878Z,68.98
2022-10-09T06:01:17.783Z,69.08
2022-10-09T06:03:50.162Z,69.15
2022-10-09T06:06:21.231Z,69.38
2022-10-09T06:08:49.797Z,69.46
2022-10-09T06:11:19.684Z,68.98
2022-10-09T06:13:48.440Z,68.43
2022-10-09T06:16:17.931Z,68.07
2022-10-09T06:18:49.383Z,67.92
2022-10-09T06:21:18.907Z,67.45
2022-10-09T06:23:50.480Z,67.12
2022-10-09T06:26:19.086Z,67.08
2022-10-09T06:28:47.250Z,67.16
2022-10-09T06:31:16.954Z,67.05
2022-10-09T06:33:46.171Z,67.35
2022-10-09T06:36:16.178Z,67.25
2022-10-09T06:38:45.618Z,67.19
2022-10-09T06:41:15.430Z,66.94
2022-10-09T06:43:44.713Z,66.46
2022-10-09T06:46:13.649Z,66.20
2022-10-09T06:48:42.045Z,65.81
2022-10-09T06:51:12.155Z,65.29
2022-10-09T06:53:41.604Z,66.08
2022-10-09T06:56:11.800Z,64.85
2022-10-09T06:58:40.685Z,64.71
2022-10-09T07:01:10.793Z,64.85
2022-10-09T07:03:39.722Z,64.79
2022-10-09T07:06:10.078Z,64.74
2022-10-09T07:08:38.289Z,64.48
2022-10-09T07:11:11.996Z,64.32
2022-10-09T07:13:40.339Z,63.73
2022-10-09T07:16:08.745Z,63.56
2022-10-09T07:18:37.438Z,63.62
2022-10-09T07:21:06.661Z,63.51
2022-10-09T07:23:36.355Z,63.47
2022-10-09T07:26:12.917Z,62.66
2022-10-09T07:28:41.694Z,62.92
2022-10-09T07:31:09.862Z,62.40
2022-10-09T07:33:37.899Z,62.77
2022-10-09T07:36:07.148Z,62.91
2022-10-09T07:38:35.396Z,62.51
2022-10-09T07:41:04.950Z,62.47
2022-10-09T07:43:35.949Z,62.89
2022-10-09T07:46:05.017Z,62.92
2022-10-09T07:48:33.103Z,61.95
2022-10-09T07:51:09.340Z,62.15
2022-10-09T07:53:37.633Z,61.97
2022-10-09T07:56:06.160Z,61.74
2022-10-09T07:58:35.340Z,60.63
2022-10-09T08:01:07.166Z,60.79
2022-10-09T08:03:35.712Z,60.32
2022-10-09T08:06:04.005Z,60.59
2022-10-09T08:08:31.967Z,60.38
2022-10-09T08:10:59.814Z,59.18
2022-10-09T08:13:27.827Z,59.23
2022-10-09T08:15:58.828Z,59.19
2022-10-09T08:18:26.715Z,58.85
2022-10-09T08:20:59.584Z,59.41
2022-10-09T08:23:27.824Z,58.89
2022-10-09T08:25:55.650Z,59.17
2022-10-09T08:28:24.255Z,58.97
2022-10-09T08:30:52.295Z,58.57
2022-10-09T08:33:23.384Z,58.24
2022-10-09T08:35:51.846Z,58.21
2022-10-09T08:38:44.882Z,57.53
2022-10-09T08:41:11.248Z,57.40
2022-10-09T08:43:43.352Z,57.54
2022-10-09T08:46:20.872Z,57.52
2022-10-09T08:48:52.981Z,56.25
2022-10-09T08:51:25.161Z,56.39
2022-10-09T08:53:59.976Z,56.68
2022-10-09T08:56:28.274Z,56.13
2022-10-09T08:58:56.899Z,55.67
2022-10-09T09:01:33.946Z,55.52
2022-10-09T09:04:28.521Z,55.21
2022-10-09T09:07:07.660Z,55.09
2022-10-09T09:09:47.802Z,54.68
2022-10-09T09:12:21.979Z,55.22
2022-10-09T09:15:02.514Z,55.63
2022-10-09T09:17:39.227Z,54.20
2022-10-09T09:20:16.269Z,54.34
2022-10-09T09:22:48.736Z,53.97
2022-10-09T09:25:22.952Z,53.70
2022-10-09T09:27:52.971Z,53.79
2022-10-09T09:30:24.273Z,53.02
2022-10-09T09:33:01.440Z,53.13
2022-10-09T09:35:38.731Z,52.77
2022-10-09T09:38:06.770Z,52.89
2022-10-09T09:40:37.713Z,52.45
2022-10-09T09:43:15.975Z,52.90
2022-10-09T09:45:44.743Z,52.41
2022-10-09T09:48:17.553Z,52.50
2022-10-09T09:50:56.214Z,52.12
2022-10-09T09:53:36.047Z,52.49
2022-10-09T09:56:04.733Z,52.10
2022-10-09T09:58:36.170Z,51.92
2022-10-09T10:01:06.392Z,51.95
2022-10-09T10:03:36.029Z,51.64
2022-10-09T10:06:05.594Z,52.03
2022-10-09T10:08:35.187Z,51.75
2022-10-09T10:11:07.314Z,51.67
2022-10-09T10:13:38.040Z,51.12
2022-10-09T10:16:08.669Z,50.55
2022-10-09T10:18:41.915Z,50.01
2022-10-09T10:21:14.084Z,50.51
2022-10-09T10:23:44.921Z,50.60
2022-10-09T10:26:28.032Z,50.28
2022-10-09T10:29:01.932Z,50.45
2022-10-09T10:31:42.654Z,50.47
2022-10-09T10:34:18.281Z,49.91
2022-10-09T10:36:48.813Z,49.34
2022-10-09T10:39:25.201Z,49.48
2022-10-09T10:41:55.142Z,49.93
2022-10-09T10:44:31.649Z,49.78
2022-10-09T10:47:05.108Z,50.34
2022-10-09T10:49:34.109Z,49.83
2022-10-09T10:52:17.753Z,48.81
2022-10-09T10:54:52.921Z,49.13
2022-10-09T10:57:27.510Z,49.50
2022-10-09T11:00:03.916Z,48.97
2022-10-09T11:03:07.310Z,47.23
2022-10-09T11:05:43.522Z,47.50
2022-10-09T11:08:28.158Z,48.30
2022-10-09T11:11:03.884Z,47.89
2022-10-09T11:13:35.847Z,47.25
2022-10-09T11:16:17.253Z,47.53
2022-10-09T11:19:02.676Z,47.86
2022-10-09T11:21:46.266Z,48.03
2022-10-09T11:24:45.006Z,47.88
2022-10-09T11:27:18.183Z,46.85
2022-10-09T11:29:52.002Z,46.13
2022-10-09T11:32:24.615Z,46.14
2022-10-09T11:34:59.540Z,46.34
2022-10-09T11:37:30.828Z,46.85
2022-10-09T11:40:00.316Z,46.37
2022-10-09T11:42:28.741Z,45.91
2022-10-09T11:45:08.570Z,45.40
2022-10-09T11:47:43.290Z,45.51
2022-10-09T11:50:21.921Z,45.63
2022-10-09T11:52:58.527Z,45.38
2022-10-09T11:55:29.675Z,44.82
2022-10-09T11:58:08.374Z,45.20
2022-10-09T12:00:37.749Z,44.43
2022-10-09T12:03:08.124Z,45.07
2022-10-09T12:05:41.740Z,45.00
2022-10-09T12:08:15.384Z,44.21
2022-10-09T12:10:54.141Z,44.20
2022-10-09T12:13:31.863Z,44.05
2022-10-09T12:16:00.661Z,43.67
2022-10-09T12:18:32.082Z,42.99
2022-10-09T12:21:04.205Z,42.27
2022-10-09T12:23:36.027Z,42.53
2022-10-09T12:26:06.628Z,41.39
2022-10-09T12:28:38.900Z,41.74
2022-10-09T12:31:18.519Z,42.03
2022-10-09T12:33:48.990Z,42.07
2022-10-09T12:36:24.517Z,41.65
2022-10-09T12:38:52.651Z,41.58
2022-10-09T12:41:25.272Z,40.25
2022-10-09T12:43:55.275Z,39.28
2022-10-09T12:46:29.541Z,39.79
2022-10-09T12:48:58.520Z,40.15
2022-10-09T12:51:29.297Z,39.63
2022-10-09T12:53:57.277Z,39.87
2022-10-09T12:56:30.809Z,39.88
2022-10-09T12:59:00.267Z,39.83
2022-10-09T13:01:28.623Z,39.92
2022-10-09T13:03:59.030Z,39.18
2022-10-09T13:06:28.688Z,38.21
2022-10-09T13:08:58.816Z,37.54
2022-10-09T13:11:34.845Z,37.23
2022-10-09T13:14:03.165Z,36.89
2022-10-09T13:16:41.052Z,37.43
2022-10-09T13:19:23.215Z,36.82
2022-10-09T13:22:03.857Z,37.08
2022-10-09T13:24:31.758Z,37.13
2022-10-09T13:27:00.977Z,37.20
2022-10-09T13:29:28.854Z,37.22
2022-10-09T13:31:56.862Z,36.28
2022-10-09T13:34:25.102Z,36.01
2022-10-09T13:36:52.943Z,35.90
2022-10-09T13:39:20.756Z,36.18
2022-10-09T13:41:52.683Z,35.87
2022-10-09T13:44:21.958Z,35.98
2022-10-09T13:46:49.873Z,36.10
2022-10-09T13:49:17.956Z,35.79
2022-10-09T13:51:46.154Z,35.84
2022-10-09T13:54:13.956Z,35.58
2022-10-09T13:56:41.777Z,35.68
2022-10-09T13:59:09.678Z,35.55
2022-10-09T14:01:39.041Z,35.32
2022-10-09T14:04:07.081Z,35.30
2022-10-09T14:06:36.464Z,35.02
2022-10-09T14:09:05.560Z,35.07
2022-10-09T14:11:34.435Z,35.27
2022-10-09T14:14:02.448Z,35.53
2022-10-09T14:16:31.656Z,34.88
2022-10-09T14:19:02.628Z,34.83
2022-10-09T14:21:31.032Z,35.02
2022-10-09T14:24:00.837Z,34.96
2022-10-09T14:26:29.836Z,34.85
2022-10-09T14:29:01.126Z,34.81
2022-10-09T14:31:29.198Z,34.78
2022-10-09T14:33:58.607Z,34.53
2022-10-09T14:36:29.056Z,34.85
2022-10-09T14:38:57.240Z,34.78
2022-10-09T14:41:25.070Z,34.30
2022-10-09T14:43:57.078Z,34.52
2022-10-09T14:46:25.526Z,34.64
2022-10-09T14:48:55.343Z,34.28
2022-10-09T14:51:24.938Z,34.74
2022-10-09T14:53:57.275Z,34.52
2022-10-09T14:56:26.260Z,35.00
2022-10-09T14:58:54.120Z,35.47
2022-10-09T15:01:23.449Z,36.13
2022-10-09T15:03:51.337Z,36.58
2022-10-09T15:06:23.774Z,36.36
2022-10-09T15:08:54.838Z,36.91
2022-10-09T15:11:24.060Z,37.23
2022-10-09T15:13:51.936Z,37.33
2022-10-09T15:16:20.761Z,37.88
2022-10-09T15:18:50.652Z,38.37
2022-10-09T15:21:21.230Z,38.60
2022-10-09T15:23:50.500Z,38.78
2022-10-09T15:26:18.818Z,39.65
2022-10-09T15:28:48.000Z,40.07
2022-10-09T15:31:22.707Z,40.67
2022-10-09T15:33:51.300Z,40.90
2022-10-09T15:36:19.197Z,41.25
2022-10-09T15:38:47.428Z,41.41
2022-10-09T15:41:21.831Z,41.93
2022-10-09T15:43:51.734Z,42.02
2022-10-09T15:46:21.552Z,42.23
2022-10-09T15:48:49.934Z,42.41
2022-10-09T15:51:18.037Z,42.63
2022-10-09T15:53:47.926Z,43.08
2022-10-09T15:56:17.743Z,43.67
2022-10-09T15:58:45.753Z,44.01
2022-10-09T16:01:16.457Z,44.33
2022-10-09T16:03:44.983Z,44.49
2022-10-09T16:06:14.873Z,44.82
2022-10-09T16:08:43.045Z,45.30
2022-10-09T16:11:13.435Z,45.84
2022-10-09T16:13:44.091Z,45.97
2022-10-09T16:16:17.182Z,46.17
2022-10-09T16:18:45.417Z,46.48
2022-10-09T16:21:14.930Z,46.62
2022-10-09T16:23:43.837Z,46.89
2022-10-09T16:26:14.412Z,46.91
2022-10-09T16:28:43.170Z,47.18
2022-10-09T16:31:20.150Z,47.33
2022-10-09T16:33:48.252Z,47.47
2022-10-09T16:36:16.351Z,47.87
2022-10-09T16:38:44.322Z,48.15
2022-10-09T16:41:14.898Z,48.07
2022-10-09T16:43:42.797Z,48.02
2022-10-09T16:46:12.627Z,48.24
2022-10-09T16:48:42.079Z,48.33
2022-10-09T16:51:12.153Z,48.58
2022-10-09T16:53:40.029Z,48.86
2022-10-09T16:56:12.844Z,49.10
2022-10-09T16:58:41.343Z,49.29
2022-10-09T17:01:10.480Z,49.62
2022-10-09T17:03:40.410Z,49.72
2022-10-09T17:06:14.717Z,50.09
2022-10-09T17:08:42.788Z,50.22
2022-10-09T17:11:12.018Z,50.33
2022-10-09T17:13:40.816Z,50.47
2022-10-09T17:16:14.394Z,50.44
2022-10-09T17:18:45.777Z,50.34
2022-10-09T17:21:16.437Z,50.62
2022-10-09T17:23:44.769Z,51.04
2022-10-09T17:26:14.630Z,50.99
2022-10-09T17:28:43.856Z,51.44
2022-10-09T17:31:14.440Z,51.38
2022-10-09T17:33:45.758Z,51.56
2022-10-09T17:36:17.329Z,51.66
2022-10-09T17:38:45.598Z,52.03
2022-10-09T17:41:17.858Z,52.33
2022-10-09T17:43:46.268Z,52.13
2022-10-09T17:46:15.345Z,52.39
2022-10-09T17:48:48.358Z,52.41
2022-10-09T17:51:19.223Z,52.29
2022-10-09T17:53:47.525Z,52.76
2022-10-09T17:56:16.459Z,52.95
2022-10-09T17:58:47.287Z,53.03
2022-10-09T18:01:15.983Z,53.24
2022-10-09T18:03:44.738Z,53.22
2022-10-09T18:06:15.036Z,53.25
2022-10-09T18:08:44.577Z,53.48
2022-10-09T18:11:15.631Z,53.73
2022-10-09T18:13:45.086Z,53.67
2022-10-09T18:16:15.602Z,53.86
2022-10-09T18:18:43.701Z,54.08
2022-10-09T18:21:13.614Z,54.41
2022-10-09T18:23:41.452Z,54.46
2022-10-09T18:26:13.528Z,54.46
2022-10-09T18:28:46.125Z,54.63
2022-10-09T18:31:19.295Z,54.70
2022-10-09T18:33:47.506Z,54.98
2022-10-09T18:36:19.526Z,54.94
2022-10-09T18:38:49.409Z,54.76
2022-10-09T18:41:20.165Z,55.22
2022-10-09T18:43:49.489Z,55.26
2022-10-09T18:46:18.676Z,55.36
2022-10-09T18:48:46.982Z,55.73
2022-10-09T18:51:18.914Z,55.50
2022-10-09T18:53:50.200Z,55.91
2022-10-09T18:56:21.792Z,55.94
2022-10-09T18:58:51.289Z,56.04
2022-10-09T19:01:19.553Z,56.16
2022-10-09T19:03:50.050Z,56.28
2022-10-09T19:06:18.470Z,56.39
2022-10-09T19:08:46.467Z,56.95
2022-10-09T19:11:14.501Z,57.14
2022-10-09T19:13:45.316Z,57.29
2022-10-09T19:16:13.348Z,57.49
2022-10-09T19:18:41.494Z,57.57
2022-10-09T19:21:13.764Z,58.01
2022-10-09T19:23:41.747Z,57.89
2022-10-09T19:26:09.517Z,58.01
2022-10-09T19:28:38.625Z,58.38
2022-10-09T19:31:10.020Z,58.62
2022-10-09T19:33:38.625Z,58.62
2022-10-09T19:36:07.945Z,59.03
2022-10-09T19:38:36.640Z,58.81
2022-10-09T19:41:05.695Z,58.94
2022-10-09T19:43:33.840Z,59.70
2022-10-09T19:46:03.402Z,59.81
2022-10-09T19:48:32.881Z,59.79
2022-10-09T19:51:00.678Z,60.20
2022-10-09T19:53:28.615Z,60.41
2022-10-09T19:55:56.417Z,60.04
2022-10-09T19:58:24.276Z,60.95
2022-10-09T20:00:52.176Z,61.26
2022-10-09T20:03:19.996Z,61.17
2022-10-09T20:05:49.152Z,60.99
2022-10-09T20:08:16.976Z,61.31
2022-10-09T20:10:44.834Z,62.48
2022-10-09T20:13:14.070Z,62.31
2022-10-09T20:15:43.422Z,61.93
2022-10-09T20:18:11.188Z,62.39
2022-10-09T20:20:39.048Z,62.35
2022-10-09T20:23:08.209Z,61.34
2022-10-09T20:25:35.980Z,61.91
2022-10-09T20:28:03.879Z,61.53
2022-10-09T20:30:31.789Z,61.47
2022-10-09T20:33:00.059Z,61.12
2022-10-09T20:35:28.225Z,61.28
2022-10-09T20:37:56.010Z,60.58
2022-10-09T20:40:25.128Z,60.66
2022-10-09T20:42:53.420Z,60.45
2022-10-09T20:45:21.300Z,61.14
2022-10-09T20:47:50.192Z,61.29
2022-10-09T20:50:18.021Z,60.39
2022-10-09T20:52:45.859Z,60.93
2022-10-09T20:55:13.649Z,60.88
2022-10-09T20:57:42.850Z,61.48
2022-10-09T21:00:11.852Z,62.43
2022-10-09T21:02:39.700Z,62.72
2022-10-09T21:05:08.368Z,62.37
2022-10-09T21:07:36.245Z,62.39
2022-10-09T21:10:05.132Z,63.08
2022-10-09T21:12:32.982Z,63.33
2022-10-09T21:15:02.101Z,63.44
2022-10-09T21:17:29.913Z,63.98
2022-10-09T21:19:58.054Z,63.73
2022-10-09T21:22:26.670Z,63.96
2022-10-09T21:24:54.495Z,63.75
2022-10-09T21:27:22.351Z,63.09
2022-10-09T21:29:50.166Z,63.48
2022-10-09T21:32:19.392Z,63.42
2022-10-09T21:34:47.431Z,62.55
2022-10-09T21:37:21.458Z,63.04
2022-10-09T21:39:49.838Z,62.53
2022-10-09T21:42:17.626Z,62.42
2022-10-09T21:44:45.392Z,63.14
2022-10-09T21:47:17.613Z,63.23
2022-10-09T21:49:47.100Z,62.78
2022-10-09T21:52:14.856Z,62.67
2022-10-09T21:54:42.688Z,62.87
2022-10-09T21:57:10.508Z,63.05
2022-10-09T21:59:38.393Z,62.31
2022-10-09T22:02:06.257Z,62.40
2022-10-09T22:04:34.223Z,61.69
2022-10-09T22:07:03.419Z,61.25
2022-10-09T22:09:31.404Z,61.98
2022-10-09T22:12:00.266Z,62.16
2022-10-09T22:14:28.067Z,61.91
2022-10-09T22:16:55.829Z,62.51
2022-10-09T22:19:23.667Z,62.17
2022-10-09T22:21:51.420Z,62.88
2022-10-09T22:24:20.629Z,63.45
2022-10-09T22:26:48.438Z,63.58
2022-10-09T22:29:16.230Z,64.23
2022-10-09T22:31:44.421Z,64.25
2022-10-09T22:34:12.166Z,65.25
2022-10-09T22:36:40.128Z,64.64
2022-10-09T22:39:08.133Z,65.01
2022-10-09T22:41:37.632Z,65.60
2022-10-09T22:44:06.972Z,65.84
2022-10-09T22:46:37.350Z,65.97
2022-10-09T22:49:06.216Z,65.58
2022-10-09T22:51:34.358Z,65.24
2022-10-09T22:54:02.294Z,65.23
2022-10-09T22:56:32.068Z,65.67
2022-10-09T22:59:01.702Z,65.71
2022-10-09T23:01:32.813Z,66.22
2022-10-09T23:04:02.549Z,65.95
2022-10-09T23:06:30.600Z,65.89
2022-10-09T23:08:59.184Z,66.62
2022-10-09T23:11:27.417Z,65.46
2022-10-09T23:13:56.828Z,65.22
2022-10-09T23:16:27.187Z,65.20
2022-10-09T23:18:56.734Z,65.78
2022-10-09T23:21:25.802Z,66.07
2022-10-09T23:23:54.376Z,65.41
2022-10-09T23:26:24.679Z,65.29
2022-10-09T23:28:53.426Z,65.35
2022-10-09T23:31:22.044Z,65.24
2022-10-09T23:33:51.392Z,64.71
2022-10-09T23:36:21.308Z,65.18
2022-10-09T23:38:49.729Z,65.48
2022-10-09T23:41:19.440Z,66.12
2022-10-09T23:43:48.459Z,65.54
2022-10-09T23:46:17.929Z,65.66
2022-10-09T23:48:46.995Z,65.40
2022-10-09T23:51:16.920Z,66.08
2022-10-09T23:53:44.939Z,64.54
2022-10-09T23:56:18.941Z,65.88
2022-10-09T23:58:47.241Z,65.53
